Time;durP1;ratioP1;P1;durP2;ratioP2;P2;SDS_P1;SDS_P2;PMS_P1;PMS_P2;Temp;Humidity;BMP_temperature;BMP_pressure;BME280_temperature;BME280_humidity;BME280_pressure;Samples;Min_cycle;Max_cycle;Signal;HPM_P1;HPM_P2
2021/11/29 00:01:07;;;;;;;;;;;;;;;-4.34;65.67;93918.66;5001021;28;19974;-66
2021/11/29 00:03:33;;;;;;;;;;;;;;;-4.07;65.81;93910.31;5020867;28;20419;-67
2021/11/29 00:05:58;;;;;;;;;;;;;;;-3.93;68.47;93919.53;5022126;28;19993;-68
2021/11/29 00:08:23;;;;;;;;;;;;;;;-3.98;66.93;93911.31;5020236;28;20808;-66
2021/11/29 00:10:48;;;;;;;;;;;;;;;-3.83;65.23;93922.19;5019563;28;20020;-66
2021/11/29 00:13:14;;;;;;;;;;;;;;;-3.93;64.42;93918.72;5019528;28;20462;-66
2021/11/29 00:15:39;;;;;;;;;;;;;;;-3.89;65.57;93917.50;5020238;28;20374;-68
2021/11/29 00:18:04;;;;;;;;;;;;;;;-3.73;65.11;93924.00;5021149;28;20446;-66
2021/11/29 00:20:30;;;;;;;;;;;;;;;-3.97;66.87;93920.75;5022258;28;20053;-67
2021/11/29 00:22:55;;;;;;;;;;;;;;;-4.11;65.64;93924.50;5017137;28;20084;-66
2021/11/29 00:25:20;;;;;;;;;;;;;;;-3.99;64.92;93924.44;5010970;28;19969;-66
2021/11/29 00:27:46;;;;;;;;;;;;;;;-4.07;65.52;93927.69;5016874;28;20328;-65
2021/11/29 00:30:11;;;;;;;;;;;;;;;-3.72;64.52;93934.28;4998995;28;20512;-65
2021/11/29 00:32:37;;;;;;;;;;;;;;;-3.65;65.72;93931.97;5008415;28;20005;-65
2021/11/29 00:35:03;;;;;;;;;;;;;;;-3.49;62.63;93935.84;5003440;28;20038;-65
2021/11/29 00:37:28;;;;;;;;;;;;;;;-4.17;65.04;93938.84;5003631;28;19992;-66
2021/11/29 00:39:53;;;;;;;;;;;;;;;-4.06;64.55;93945.78;5001669;28;19974;-66
2021/11/29 00:42:19;;;;;;;;;;;;;;;-3.63;65.47;93937.88;5008430;28;20477;-67
2021/11/29 00:44:44;;;;;;;;;;;;;;;-3.69;63.33;93938.41;5003423;28;19981;-66
2021/11/29 00:47:09;;;;;;;;;;;;;;;-3.85;65.07;93936.25;5016907;28;19985;-66
2021/11/29 00:49:35;;;;;;;;;;;;;;;-3.91;66.22;93942.81;5018416;28;20501;-67
2021/11/29 00:52:00;;;;;;;;;;;;;;;-3.78;66.18;93946.03;5007768;28;20060;-67
2021/11/29 00:54:25;;;;;;;;;;;;;;;-3.59;63.29;93946.22;5007425;28;20391;-66
2021/11/29 00:56:50;;;;;;;;;;;;;;;-4.53;67.94;93953.09;5004505;28;19977;-67
2021/11/29 00:59:15;;;;;;;;;;;;;;;-5.00;68.78;93959.44;5002926;28;20012;-66
2021/11/29 01:01:41;;;;;;;;;;;;;;;-5.25;71.11;93958.78;5007239;28;20494;-64
2021/11/29 01:04:06;;;;;;;;;;;;;;;-4.92;69.16;93962.25;5015351;28;20080;-65
2021/11/29 01:06:31;;;;;;;;;;;;;;;-5.29;71.51;93967.75;5005030;28;19989;-63
2021/11/29 01:08:56;;;;;;;;;;;;;;;-4.96;72.54;93971.25;5006462;28;19965;-65
2021/11/29 01:11:22;;;;;;;;;;;;;;;-4.68;67.80;93971.59;5003665;28;20449;-66
2021/11/29 01:13:47;;;;;;;;;;;;;;;-4.69;68.48;93978.56;5005078;28;19993;-66
2021/11/29 01:16:12;;;;;;;;;;;;;;;-4.74;69.46;93985.91;5002744;28;20518;-66
2021/11/29 01:18:37;;;;;;;;;;;;;;;-4.89;68.72;93979.34;5013569;28;20085;-66
2021/11/29 01:21:03;;;;;;;;;;;;;;;-4.59;69.32;93988.19;5007864;28;19973;-67
2021/11/29 01:23:28;;;;;;;;;;;;;;;-4.88;68.46;93986.19;5007976;28;20028;-67
2021/11/29 01:25:54;;;;;;;;;;;;;;;-4.82;68.86;93993.50;5011127;28;20005;-67
2021/11/29 01:28:20;;;;;;;;;;;;;;;-5.39;69.60;93991.84;5013424;28;20051;-67
2021/11/29 01:30:45;;;;;;;;;;;;;;;-5.14;68.88;94000.28;5005027;28;19990;-67
2021/11/29 01:33:10;;;;;;;;;;;;;;;-5.36;73.79;94001.97;5006711;28;20347;-65
2021/11/29 01:35:36;;;;;;;;;;;;;;;-4.99;68.79;94006.03;5011311;28;19996;-67
2021/11/29 01:38:01;;;;;;;;;;;;;;;-4.58;68.13;93998.47;5005470;28;20288;-67
2021/11/29 01:40:27;;;;;;;;;;;;;;;-4.97;68.16;94009.34;5018927;28;20009;-65
2021/11/29 01:43:03;;;;;;;;;;;;;;;-5.02;67.73;94008.91;4989394;28;20400;-67
2021/11/29 01:45:29;;;;;;;;;;;;;;;-5.14;67.67;94017.63;5010448;28;20000;-67
2021/11/29 01:47:55;;;;;;;;;;;;;;;-5.48;69.37;94005.50;5021286;28;20356;-66
2021/11/29 01:50:20;;;;;;;;;;;;;;;-5.87;71.34;94024.81;5021922;28;19993;-66
2021/11/29 01:52:45;;;;;;;;;;;;;;;-5.75;73.58;94024.84;5014119;28;19981;-65
2021/11/29 01:55:10;;;;;;;;;;;;;;;-5.81;70.99;94026.13;5021176;28;20088;-67
2021/11/29 01:57:35;;;;;;;;;;;;;;;-6.27;73.46;94031.22;5022974;28;20020;-67
2021/11/29 02:00:01;;;;;;;;;;;;;;;-6.15;71.55;94026.88;5021451;28;19996;-65
2021/11/29 02:02:28;;;;;;;;;;;;;;;-6.03;72.98;94024.31;5012008;28;20482;-65
2021/11/29 02:04:54;;;;;;;;;;;;;;;-5.75;69.07;94035.19;5023190;28;19974;-67
2021/11/29 02:07:19;;;;;;;;;;;;;;;-5.83;71.13;94027.19;5013202;28;20336;-66
2021/11/29 02:09:44;;;;;;;;;;;;;;;-5.90;70.91;94022.47;5013123;28;19993;-65
2021/11/29 02:12:09;;;;;;;;;;;;;;;-5.69;71.43;94032.16;5022667;28;20043;-67
2021/11/29 02:14:34;;;;;;;;;;;;;;;-5.89;70.55;94038.84;5022497;28;20019;-66
2021/11/29 02:17:00;;;;;;;;;;;;;;;-6.04;71.07;94035.63;5016554;28;20017;-66
2021/11/29 02:19:25;;;;;;;;;;;;;;;-6.09;69.90;94027.41;5013561;28;19997;-67
2021/11/29 02:21:50;;;;;;;;;;;;;;;-5.39;68.12;94035.09;5017656;28;20509;-66
2021/11/29 02:24:17;;;;;;;;;;;;;;;-5.11;66.75;94041.59;5013145;28;20365;-66
2021/11/29 02:26:42;;;;;;;;;;;;;;;-5.40;67.02;94033.47;5021783;28;20000;-67
2021/11/29 02:29:14;;;;;;;;;;;;;;;-5.11;68.49;94038.97;5019627;28;19993;-67
2021/11/29 02:31:40;;;;;;;;;;;;;;;-4.69;65.66;94030.50;5020793;28;20347;-66
2021/11/29 02:34:09;;;;;;;;;;;;;;;-4.15;61.79;94034.91;5021099;28;19993;-67
2021/11/29 02:36:35;;;;;;;;;;;;;;;-4.70;63.71;94030.63;5022859;28;19977;-65
2021/11/29 02:39:00;;;;;;;;;;;;;;;-4.86;66.82;94037.03;5021695;28;19993;-67
2021/11/29 02:41:25;;;;;;;;;;;;;;;-4.46;63.77;94037.41;5020237;28;19984;-67
2021/11/29 02:43:50;;;;;;;;;;;;;;;-5.24;65.24;94033.91;5003799;28;20093;-65
2021/11/29 02:46:16;;;;;;;;;;;;;;;-5.48;68.45;94044.41;5021973;28;20549;-66
2021/11/29 02:48:45;;;;;;;;;;;;;;;-5.41;65.99;94048.19;5020777;28;20012;-67
2021/11/29 02:51:40;;;;;;;;;;;;;;;-5.73;68.56;94054.91;5019593;28;20469;-67
2021/11/29 02:54:05;;;;;;;;;;;;;;;-5.69;71.26;94039.94;5010442;28;19990;-67
2021/11/29 02:56:31;;;;;;;;;;;;;;;-5.94;69.41;94061.69;5021543;28;20015;-67
2021/11/29 02:58:56;;;;;;;;;;;;;;;-5.98;69.99;94046.38;5019476;28;20474;-66
2021/11/29 03:01:21;;;;;;;;;;;;;;;-6.31;72.35;94054.88;5021438;28;19927;-67
2021/11/29 03:03:50;;;;;;;;;;;;;;;-6.12;70.95;94062.94;5020036;28;20446;-66
2021/11/29 03:06:15;;;;;;;;;;;;;;;-5.99;69.93;94059.44;5018467;28;19990;-66
2021/11/29 03:08:41;;;;;;;;;;;;;;;-5.74;68.21;94065.41;5021482;28;19981;-67
2021/11/29 03:11:06;;;;;;;;;;;;;;;-5.43;66.57;94059.63;5002631;28;19993;-67
2021/11/29 03:13:32;;;;;;;;;;;;;;;-5.23;65.82;94066.72;5019425;28;20369;-66
2021/11/29 03:15:57;;;;;;;;;;;;;;;-5.15;65.89;94073.06;5021629;28;20022;-66
2021/11/29 03:18:35;;;;;;;;;;;;;;;-5.59;67.18;94066.00;5020845;28;20382;-67
2021/11/29 03:21:00;;;;;;;;;;;;;;;-5.73;67.68;94075.66;5019830;28;19973;-67
2021/11/29 03:23:26;;;;;;;;;;;;;;;-6.33;72.24;94073.13;5007833;28;20035;-67
2021/11/29 03:25:51;;;;;;;;;;;;;;;-6.22;69.29;94069.72;5019424;28;20201;-67
2021/11/29 03:28:16;;;;;;;;;;;;;;;-5.46;67.48;94068.50;5019442;28;19993;-66
2021/11/29 03:30:41;;;;;;;;;;;;;;;-5.78;67.16;94074.34;5019529;28;19997;-65
2021/11/29 03:33:07;;;;;;;;;;;;;;;-6.30;71.43;94079.84;5019914;28;20696;-66
2021/11/29 03:35:32;;;;;;;;;;;;;;;-6.05;70.98;94086.63;5018869;28;20224;-67
2021/11/29 03:37:57;;;;;;;;;;;;;;;-5.76;68.93;94077.63;5020203;28;20533;-66
2021/11/29 03:40:23;;;;;;;;;;;;;;;-5.69;68.00;94081.44;5019164;28;20434;-67
2021/11/29 03:42:48;;;;;;;;;;;;;;;-5.48;65.75;94073.78;5020515;28;20009;-67
2021/11/29 03:45:13;;;;;;;;;;;;;;;-6.16;69.56;94079.66;5018846;28;20382;-66
2021/11/29 03:47:39;;;;;;;;;;;;;;;-6.26;72.18;94078.66;5020836;28;20385;-66
2021/11/29 03:50:04;;;;;;;;;;;;;;;-5.94;68.76;94078.09;5020603;28;20632;-67
2021/11/29 03:52:29;;;;;;;;;;;;;;;-6.00;69.86;94084.56;5015509;28;19977;-66
2021/11/29 03:54:55;;;;;;;;;;;;;;;-5.90;71.33;94078.66;5020248;28;20473;-67
2021/11/29 03:57:20;;;;;;;;;;;;;;;-5.88;69.38;94085.38;5019904;28;20068;-67
2021/11/29 03:59:45;;;;;;;;;;;;;;;-5.44;69.45;94079.56;5015302;28;20095;-65
2021/11/29 04:02:11;;;;;;;;;;;;;;;-5.68;68.52;94079.66;5020015;28;19997;-67
2021/11/29 04:04:36;;;;;;;;;;;;;;;-5.91;69.25;94093.38;5019089;28;20067;-67
2021/11/29 04:07:02;;;;;;;;;;;;;;;-5.74;68.38;94099.91;5010042;28;20224;-67
2021/11/29 04:09:27;;;;;;;;;;;;;;;-5.67;68.14;94092.53;5010405;28;20607;-68
2021/11/29 04:11:52;;;;;;;;;;;;;;;-6.06;69.04;94102.28;5020844;28;19975;-66
2021/11/29 04:14:17;;;;;;;;;;;;;;;-6.38;72.51;94096.75;5002739;28;19997;-66
2021/11/29 04:16:43;;;;;;;;;;;;;;;-6.05;68.89;94102.19;5019521;28;20024;-66
2021/11/29 04:19:08;;;;;;;;;;;;;;;-6.16;70.12;94102.16;5019098;28;19936;-67
2021/11/29 04:21:34;;;;;;;;;;;;;;;-6.38;72.02;94108.91;5020144;28;19993;-66
2021/11/29 04:23:59;;;;;;;;;;;;;;;-6.85;71.47;94109.59;5007977;28;20629;-68
2021/11/29 04:26:24;;;;;;;;;;;;;;;-6.59;73.01;94119.84;5019331;28;19983;-66
2021/11/29 04:28:51;;;;;;;;;;;;;;;-6.82;74.84;94108.53;5021246;28;19997;-66
2021/11/29 04:31:17;;;;;;;;;;;;;;;-6.57;72.70;94114.56;5020658;28;19921;-67
2021/11/29 04:33:42;;;;;;;;;;;;;;;-6.39;70.81;94118.41;5019424;28;19952;-67
2021/11/29 04:36:07;;;;;;;;;;;;;;;-6.45;73.43;94111.13;5020416;28;20447;-67
2021/11/29 04:38:32;;;;;;;;;;;;;;;-6.24;72.41;94110.50;5018850;28;19997;-67
2021/11/29 04:40:58;;;;;;;;;;;;;;;-5.96;69.64;94108.47;5019421;28;19973;-66
2021/11/29 04:43:23;;;;;;;;;;;;;;;-6.28;69.35;94122.00;5019216;28;20001;-66
2021/11/29 04:45:48;;;;;;;;;;;;;;;-6.41;71.23;94112.53;5021145;28;19957;-68
2021/11/29 04:48:13;;;;;;;;;;;;;;;-6.52;71.88;94105.53;5021260;28;20443;-66
2021/11/29 04:50:39;;;;;;;;;;;;;;;-6.26;72.94;94110.59;5020008;28;20383;-67
2021/11/29 04:53:04;;;;;;;;;;;;;;;-6.50;71.62;94111.44;5021236;28;20143;-68
2021/11/29 04:55:29;;;;;;;;;;;;;;;-6.48;71.29;94116.50;5020279;28;20561;-66
2021/11/29 04:57:55;;;;;;;;;;;;;;;-6.59;71.51;94117.25;5020408;28;19932;-67
2021/11/29 05:00:20;;;;;;;;;;;;;;;-6.42;71.32;94126.41;5013231;28;19921;-67
2021/11/29 05:02:45;;;;;;;;;;;;;;;-6.34;73.15;94130.22;5018064;28;20012;-67
2021/11/29 05:05:11;;;;;;;;;;;;;;;-6.12;72.73;94126.91;5020106;28;19961;-67
2021/11/29 05:07:36;;;;;;;;;;;;;;;-6.14;71.34;94132.22;5010689;28;20012;-68
2021/11/29 05:10:02;;;;;;;;;;;;;;;-6.24;71.49;94134.66;5022805;28;19997;-66
2021/11/29 05:12:28;;;;;;;;;;;;;;;-5.88;68.47;94131.25;5022650;28;20000;-68
2021/11/29 05:14:53;;;;;;;;;;;;;;;-5.88;70.15;94126.06;5022421;28;20000;-66
2021/11/29 05:17:19;;;;;;;;;;;;;;;-5.77;70.99;94133.03;5022164;28;20084;-66
2021/11/29 05:19:44;;;;;;;;;;;;;;;-5.49;72.26;94131.81;5023987;28;20072;-68
2021/11/29 05:22:09;;;;;;;;;;;;;;;-5.30;68.99;94132.19;5019260;28;20002;-67
2021/11/29 05:24:34;;;;;;;;;;;;;;;-5.53;68.43;94138.16;5016211;28;20462;-66
2021/11/29 05:27:00;;;;;;;;;;;;;;;-5.39;66.33;94139.72;5023072;28;20037;-68
2021/11/29 05:29:25;;;;;;;;;;;;;;;-5.24;66.84;94137.72;5023058;28;20504;-68
2021/11/29 05:31:50;;;;;;;;;;;;;;;-5.99;69.02;94147.56;5022221;28;20072;-68
2021/11/29 05:34:16;;;;;;;;;;;;;;;-6.19;69.47;94149.84;5023789;28;20434;-67
2021/11/29 05:36:42;;;;;;;;;;;;;;;-6.46;70.62;94157.84;5023586;28;19948;-66
2021/11/29 05:39:07;;;;;;;;;;;;;;;-6.18;70.35;94155.84;5023255;28;20001;-68
2021/11/29 05:41:32;;;;;;;;;;;;;;;-6.66;70.88;94165.25;5022961;28;20746;-67
2021/11/29 05:43:58;;;;;;;;;;;;;;;-6.27;69.89;94165.13;5023431;28;19977;-67
2021/11/29 05:46:23;;;;;;;;;;;;;;;-6.46;70.10;94158.66;5022873;28;20573;-68
2021/11/29 05:48:48;;;;;;;;;;;;;;;-7.07;72.78;94172.34;5024280;28;19951;-67
2021/11/29 05:51:14;;;;;;;;;;;;;;;-7.31;75.20;94167.94;5023244;28;20003;-66
2021/11/29 05:53:39;;;;;;;;;;;;;;;-7.07;74.64;94173.16;5016491;28;19997;-66
2021/11/29 05:56:06;;;;;;;;;;;;;;;-6.90;72.83;94190.13;5024032;28;19948;-67
2021/11/29 05:58:31;;;;;;;;;;;;;;;-6.46;71.36;94176.78;5022319;28;20012;-67
2021/11/29 06:00:56;;;;;;;;;;;;;;;-7.06;73.94;94194.72;5022700;28;19917;-65
2021/11/29 06:03:22;;;;;;;;;;;;;;;-6.84;73.66;94195.81;5022337;28;19996;-67
2021/11/29 06:05:47;;;;;;;;;;;;;;;-6.96;73.12;94200.91;5020274;28;20080;-67
2021/11/29 06:08:12;;;;;;;;;;;;;;;-6.38;72.99;94195.19;5012799;28;19924;-68
2021/11/29 06:10:37;;;;;;;;;;;;;;;-6.43;75.70;94193.84;5021120;28;19925;-68
2021/11/29 06:13:03;;;;;;;;;;;;;;;-6.57;71.65;94197.41;5022738;28;20406;-68
2021/11/29 06:15:28;;;;;;;;;;;;;;;-6.67;73.48;94211.03;5022421;28;19921;-68
2021/11/29 06:17:53;;;;;;;;;;;;;;;-6.50;73.98;94203.81;5021014;28;19997;-67
2021/11/29 06:20:22;;;;;;;;;;;;;;;-6.83;72.40;94207.84;5023059;28;19994;-66
2021/11/29 06:22:51;;;;;;;;;;;;;;;-6.81;72.69;94204.22;5019189;28;20001;-67
2021/11/29 06:25:17;;;;;;;;;;;;;;;-7.01;73.25;94198.63;5022311;28;19969;-66
2021/11/29 06:27:42;;;;;;;;;;;;;;;-6.77;72.01;94212.56;5022823;28;19970;-67
2021/11/29 06:30:07;;;;;;;;;;;;;;;-7.09;73.59;94213.03;5018591;28;20490;-66
2021/11/29 06:32:33;;;;;;;;;;;;;;;-7.10;73.76;94208.78;5010462;28;19921;-65
2021/11/29 06:34:58;;;;;;;;;;;;;;;-6.93;74.75;94211.03;5013053;28;20110;-67
2021/11/29 06:37:25;;;;;;;;;;;;;;;-6.91;75.20;94222.13;5021693;28;19979;-66
2021/11/29 06:39:50;;;;;;;;;;;;;;;-6.82;73.16;94217.25;5017035;28;20431;-66
2021/11/29 06:42:15;;;;;;;;;;;;;;;-6.31;71.82;94218.09;5019591;28;20424;-67
2021/11/29 06:44:41;;;;;;;;;;;;;;;-6.68;72.23;94226.66;5019568;28;20335;-67
2021/11/29 06:47:06;;;;;;;;;;;;;;;-7.00;74.29;94230.53;5019704;28;19993;-67
2021/11/29 06:49:31;;;;;;;;;;;;;;;-6.99;75.22;94227.00;5005004;28;20378;-67
2021/11/29 06:51:56;;;;;;;;;;;;;;;-6.94;77.45;94247.38;5015289;28;20028;-66
2021/11/29 06:54:22;;;;;;;;;;;;;;;-6.78;74.29;94245.41;5018891;28;20437;-66
2021/11/29 06:56:48;;;;;;;;;;;;;;;-6.82;74.66;94237.97;5020581;28;19973;-67
2021/11/29 06:59:13;;;;;;;;;;;;;;;-6.56;75.35;94243.13;5018248;28;20000;-67
2021/11/29 07:01:38;;;;;;;;;;;;;;;-6.56;74.88;94250.88;5011319;28;20504;-66
2021/11/29 07:04:03;;;;;;;;;;;;;;;-6.02;71.58;94252.28;5021147;28;19932;-66
2021/11/29 07:06:29;;;;;;;;;;;;;;;-6.15;74.19;94252.31;5018405;28;19996;-67
2021/11/29 07:08:55;;;;;;;;;;;;;;;-6.50;73.38;94258.22;5017022;28;20008;-66
2021/11/29 07:11:20;;;;;;;;;;;;;;;-6.66;74.50;94255.88;5020723;28;20334;-66
2021/11/29 07:13:46;;;;;;;;;;;;;;;-6.75;75.38;94270.28;5006562;28;20100;-66
2021/11/29 07:16:11;;;;;;;;;;;;;;;-6.96;76.28;94277.72;5020965;28;20001;-67
2021/11/29 07:18:36;;;;;;;;;;;;;;;-6.52;73.48;94271.28;4998657;28;19997;-67
2021/11/29 07:21:01;;;;;;;;;;;;;;;-6.37;73.10;94271.16;5021507;28;20029;-66
2021/11/29 07:23:27;;;;;;;;;;;;;;;-6.33;72.62;94277.78;5007782;28;20635;-66
2021/11/29 07:25:52;;;;;;;;;;;;;;;-6.27;72.81;94284.28;5016250;28;20390;-65
2021/11/29 07:28:17;;;;;;;;;;;;;;;-6.25;71.75;94282.44;5001080;28;19990;-63
2021/11/29 07:30:42;;;;;;;;;;;;;;;-6.19;72.04;94286.34;5015478;28;19924;-64
2021/11/29 07:33:08;;;;;;;;;;;;;;;-6.54;72.86;94291.28;5020033;28;19929;-64
2021/11/29 07:35:34;;;;;;;;;;;;;;;-6.83;74.16;94296.66;5018428;28;19971;-65
2021/11/29 07:37:59;;;;;;;;;;;;;;;-6.97;75.55;94296.78;5011968;28;19925;-65
2021/11/29 07:40:28;;;;;;;;;;;;;;;-6.66;75.89;94303.28;5010052;28;19921;-66
2021/11/29 07:42:54;;;;;;;;;;;;;;;-6.62;74.29;94302.16;5002612;28;20048;-67
2021/11/29 07:45:19;;;;;;;;;;;;;;;-6.42;73.14;94310.31;4999658;28;19974;-65
2021/11/29 07:47:45;;;;;;;;;;;;;;;-6.27;72.69;94305.84;5009437;28;20468;-66
2021/11/29 07:50:13;;;;;;;;;;;;;;;-6.04;72.25;94310.38;5015805;28;20016;-67
2021/11/29 07:52:38;;;;;;;;;;;;;;;-5.78;70.43;94310.28;4996174;28;20311;-67
2021/11/29 07:55:07;;;;;;;;;;;;;;;-6.17;71.71;94320.75;5009985;28;19996;-67
2021/11/29 07:57:32;;;;;;;;;;;;;;;-6.10;72.42;94319.41;5015085;28;20001;-67
2021/11/29 07:59:59;;;;;;;;;;;;;;;-6.32;73.87;94318.28;5011645;28;19974;-66
2021/11/29 08:02:26;;;;;;;;;;;;;;;-6.04;71.11;94331.94;5011422;28;20043;-66
2021/11/29 08:04:53;;;;;;;;;;;;;;;-5.65;69.90;94329.22;5019155;28;20022;-66
2021/11/29 08:07:18;;;;;;;;;;;;;;;-5.93;71.18;94338.13;5010617;28;19996;-67
2021/11/29 08:09:43;;;;;;;;;;;;;;;-5.47;69.38;94329.66;5004365;28;19993;-66
2021/11/29 08:12:08;;;;;;;;;;;;;;;-5.24;68.65;94334.13;4996236;28;20180;-67
2021/11/29 08:14:34;;;;;;;;;;;;;;;-5.74;70.55;94345.44;5011076;28;20009;-66
2021/11/29 08:16:59;;;;;;;;;;;;;;;-6.07;71.04;94346.84;5015554;28;20021;-66
2021/11/29 08:19:24;;;;;;;;;;;;;;;-6.03;71.57;94350.88;5000888;28;19997;-67
2021/11/29 08:21:50;;;;;;;;;;;;;;;-6.31;73.12;94345.03;4993387;28;20584;-66
2021/11/29 08:24:15;;;;;;;;;;;;;;;-5.83;71.66;94353.84;4991095;28;19984;-67
2021/11/29 08:26:40;;;;;;;;;;;;;;;-6.21;72.31;94366.78;4998166;28;20398;-66
2021/11/29 08:29:05;;;;;;;;;;;;;;;-6.16;72.74;94356.94;4975657;28;20506;-67
2021/11/29 08:31:31;;;;;;;;;;;;;;;-5.79;71.40;94360.47;4999684;28;20385;-66
2021/11/29 08:33:56;;;;;;;;;;;;;;;-5.63;70.08;94366.25;5017862;28;20153;-66
2021/11/29 08:36:21;;;;;;;;;;;;;;;-5.33;69.57;94357.19;5021487;28;20107;-66
2021/11/29 08:38:46;;;;;;;;;;;;;;;-5.87;70.61;94369.63;5016350;28;20674;-67
2021/11/29 08:41:12;;;;;;;;;;;;;;;-5.67;71.21;94367.41;5012233;28;19978;-66
2021/11/29 08:43:38;;;;;;;;;;;;;;;-4.90;68.49;94360.19;5010277;28;19978;-67
2021/11/29 08:46:04;;;;;;;;;;;;;;;-5.10;68.52;94365.09;5023406;28;20298;-67
2021/11/29 08:48:29;;;;;;;;;;;;;;;-5.19;68.47;94363.19;5011843;28;20439;-68
2021/11/29 08:50:54;;;;;;;;;;;;;;;-5.42;70.01;94367.41;5017162;28;20033;-67
2021/11/29 08:53:21;;;;;;;;;;;;;;;-5.63;70.18;94368.84;5019711;28;19993;-66
2021/11/29 08:55:46;;;;;;;;;;;;;;;-5.61;70.96;94373.91;5021359;28;19973;-68
2021/11/29 08:58:11;;;;;;;;;;;;;;;-5.47;70.40;94365.97;5021765;28;20325;-64
2021/11/29 09:00:37;;;;;;;;;;;;;;;-4.91;69.18;94368.09;5022037;28;19973;-66
2021/11/29 09:03:06;;;;;;;;;;;;;;;-5.12;67.86;94373.94;5024747;28;19993;-67
2021/11/29 09:05:32;;;;;;;;;;;;;;;-4.52;68.27;94368.66;5020316;28;19993;-67
2021/11/29 09:07:57;;;;;;;;;;;;;;;-5.01;68.71;94380.94;5008929;28;20034;-67
2021/11/29 09:10:23;;;;;;;;;;;;;;;-4.80;68.58;94373.34;5020586;28;20021;-67
2021/11/29 09:12:48;;;;;;;;;;;;;;;-5.02;68.82;94387.06;5010486;28;19989;-66
2021/11/29 09:15:14;;;;;;;;;;;;;;;-4.95;68.47;94375.31;5014334;28;20032;-66
2021/11/29 09:17:39;;;;;;;;;;;;;;;-4.84;68.20;94390.09;5019976;28;20740;-66
2021/11/29 09:20:05;;;;;;;;;;;;;;;-4.96;68.02;94384.84;5014296;28;20073;-67
2021/11/29 09:22:31;;;;;;;;;;;;;;;-5.03;68.75;94386.22;5016431;28;19998;-67
2021/11/29 09:24:56;;;;;;;;;;;;;;;-4.66;67.82;94379.28;5013686;28;19977;-67
2021/11/29 09:27:22;;;;;;;;;;;;;;;-4.95;68.47;94385.69;5017659;28;20495;-67
2021/11/29 09:29:49;;;;;;;;;;;;;;;-5.67;71.20;94397.69;5010755;28;20068;-66
2021/11/29 09:32:14;;;;;;;;;;;;;;;-5.53;70.86;94396.72;5018794;28;19977;-66
2021/11/29 09:34:40;;;;;;;;;;;;;;;-4.97;69.33;94391.00;5013791;28;20004;-67
2021/11/29 09:37:05;;;;;;;;;;;;;;;-4.89;68.63;94393.00;5020087;28;20589;-67
2021/11/29 09:39:30;;;;;;;;;;;;;;;-4.44;67.29;94378.50;5016247;28;20205;-67
2021/11/29 09:41:56;;;;;;;;;;;;;;;-4.77;67.97;94403.44;5024186;28;19993;-66
2021/11/29 09:44:21;;;;;;;;;;;;;;;-5.12;70.36;94394.69;5016615;28;20068;-67
2021/11/29 09:46:46;;;;;;;;;;;;;;;-4.84;69.25;94387.50;5016057;28;20000;-68
2021/11/29 09:49:12;;;;;;;;;;;;;;;-4.79;70.11;94394.94;5018010;28;20012;-65
2021/11/29 09:51:37;;;;;;;;;;;;;;;-4.23;67.20;94394.25;5009884;28;20028;-67
2021/11/29 09:54:03;;;;;;;;;;;;;;;-4.08;65.76;94394.03;5019293;28;20008;-66
2021/11/29 09:56:28;;;;;;;;;;;;;;;-4.45;67.13;94393.25;5014729;28;19973;-67
2021/11/29 09:58:54;;;;;;;;;;;;;;;-4.48;67.69;94393.47;5012700;28;19991;-67
2021/11/29 10:01:19;;;;;;;;;;;;;;;-4.73;67.84;94397.91;5007972;28;19981;-67
2021/11/29 10:03:44;;;;;;;;;;;;;;;-4.44;67.28;94401.91;5026603;28;19974;-68
2021/11/29 10:06:10;;;;;;;;;;;;;;;-4.52;70.89;94401.66;5019717;28;20371;-67
2021/11/29 10:08:39;;;;;;;;;;;;;;;-4.37;67.90;94403.09;5017808;28;19925;-67
2021/11/29 10:11:14;;;;;;;;;;;;;;;-4.59;68.34;94420.28;5018984;28;20343;-67
2021/11/29 10:13:45;;;;;;;;;;;;;;;-4.71;70.33;94406.44;5023690;28;20547;-68
2021/11/29 10:16:10;;;;;;;;;;;;;;;-4.43;68.49;94411.34;5023738;28;20096;-66
2021/11/29 10:18:36;;;;;;;;;;;;;;;-4.20;67.24;94409.63;5022070;28;20103;-68
2021/11/29 10:21:10;;;;;;;;;;;;;;;-4.68;68.57;94406.19;5016428;28;20327;-69
2021/11/29 10:23:35;;;;;;;;;;;;;;;-4.35;67.83;94409.00;5009355;28;20045;-68
2021/11/29 10:26:03;;;;;;;;;;;;;;;-4.74;68.98;94411.00;5010940;28;20016;-69
2021/11/29 10:28:29;;;;;;;;;;;;;;;-4.33;67.48;94416.66;5021828;28;19989;-69
2021/11/29 10:31:04;;;;;;;;;;;;;;;-4.44;69.75;94394.09;5007752;28;20425;-68
2021/11/29 10:33:30;;;;;;;;;;;;;;;-3.84;67.47;94411.28;5013742;28;20591;-68
2021/11/29 10:35:55;;;;;;;;;;;;;;;-4.48;69.02;94392.69;5014975;28;20447;-68
2021/11/29 10:38:27;;;;;;;;;;;;;;;-4.60;69.56;94403.03;5017891;28;20004;-68
2021/11/29 10:40:56;;;;;;;;;;;;;;;-4.43;69.49;94395.75;5016471;28;20068;-68
2021/11/29 10:43:22;;;;;;;;;;;;;;;-3.96;69.44;94393.09;5000318;28;19985;-68
2021/11/29 10:45:47;;;;;;;;;;;;;;;-3.89;67.87;94397.78;5000937;28;20481;-68
2021/11/29 10:48:25;;;;;;;;;;;;;;;-3.81;67.38;94398.88;5021356;28;20387;-68
2021/11/29 10:51:06;;;;;;;;;;;;;;;-2.97;70.60;94390.66;5010880;28;20513;-68
2021/11/29 10:53:32;;;;;;;;;;;;;;;-1.89;66.42;94386.16;4989922;28;20029;-70
2021/11/29 10:55:58;;;;;;;;;;;;;;;-1.38;63.10;94388.78;5005041;28;20025;-68
2021/11/29 10:58:25;;;;;;;;;;;;;;;-0.89;60.40;94385.44;5012923;28;20309;-68
2021/11/29 11:00:50;;;;;;;;;;;;;;;-1.32;57.46;94418.75;5014352;28;20057;-67
2021/11/29 11:03:16;;;;;;;;;;;;;;;-0.92;59.77;94382.28;5015491;28;20091;-66
2021/11/29 11:06:00;;;;;;;;;;;;;;;-0.39;56.99;94385.41;5015155;28;20110;-68
2021/11/29 11:08:33;;;;;;;;;;;;;;;-0.26;62.87;94388.56;5011261;28;19978;-68
2021/11/29 11:10:58;;;;;;;;;;;;;;;-0.03;54.56;94397.88;5020209;28;20019;-68
2021/11/29 11:13:23;;;;;;;;;;;;;;;0.34;56.13;94389.19;5019082;28;19990;-68
2021/11/29 11:15:48;;;;;;;;;;;;;;;-0.25;58.15;94397.22;5017093;28;19966;-68
2021/11/29 11:18:14;;;;;;;;;;;;;;;-0.23;54.42;94400.53;5013853;28;20425;-67
2021/11/29 11:20:39;;;;;;;;;;;;;;;-0.09;60.52;94399.25;5005363;28;19952;-66
2021/11/29 11:23:04;;;;;;;;;;;;;;;-0.37;59.07;94412.25;5017842;28;20027;-67
2021/11/29 11:25:33;;;;;;;;;;;;;;;0.07;56.77;94415.19;5019716;28;20009;-68
2021/11/29 11:27:59;;;;;;;;;;;;;;;-0.46;60.39;94419.97;5012643;28;20013;-67
2021/11/29 11:30:25;;;;;;;;;;;;;;;-0.01;58.30;94417.69;5007251;28;20479;-67
2021/11/29 11:32:54;;;;;;;;;;;;;;;0.26;56.10;94426.56;5019562;28;19998;-67
2021/11/29 11:35:20;;;;;;;;;;;;;;;-0.10;59.40;94424.59;5020687;28;19989;-68
2021/11/29 11:37:53;;;;;;;;;;;;;;;0.27;56.68;94430.03;5018932;28;20245;-67
2021/11/29 11:40:19;;;;;;;;;;;;;;;-0.19;59.23;94428.06;5022140;28;19973;-68
2021/11/29 11:42:45;;;;;;;;;;;;;;;0.39;55.07;94430.66;5021035;28;20088;-67
2021/11/29 11:45:11;;;;;;;;;;;;;;;-0.19;57.05;94435.91;5007080;28;20582;-68
2021/11/29 11:47:36;;;;;;;;;;;;;;;0.07;59.45;94435.28;5003247;28;20187;-67
2021/11/29 11:50:02;;;;;;;;;;;;;;;0.24;57.17;94436.34;5015530;28;20003;-68
2021/11/29 11:52:28;;;;;;;;;;;;;;;0.38;54.69;94431.63;5008403;28;20240;-66
2021/11/29 11:54:57;;;;;;;;;;;;;;;0.12;52.75;94440.94;5020653;28;19985;-69
2021/11/29 11:57:23;;;;;;;;;;;;;;;-0.23;59.46;94439.78;5008133;28;20400;-67
2021/11/29 12:00:05;;;;;;;;;;;;;;;0.45;54.34;94435.31;5012047;28;20012;-68
2021/11/29 12:02:43;;;;;;;;;;;;;;;0.56;51.56;94432.53;5020456;28;20140;-67
2021/11/29 12:05:18;;;;;;;;;;;;;;;0.40;53.99;94435.75;5020933;28;20024;-66
2021/11/29 12:07:44;;;;;;;;;;;;;;;0.37;54.70;94437.84;5018079;28;20513;-68
2021/11/29 12:10:38;;;;;;;;;;;;;;;-0.09;55.95;94441.97;5010956;28;19996;-66
2021/11/29 12:13:06;;;;;;;;;;;;;;;0.15;54.52;94442.44;5015926;28;19986;-66
2021/11/29 12:15:39;;;;;;;;;;;;;;;0.01;58.50;94441.94;5020197;28;20262;-67
2021/11/29 12:18:04;;;;;;;;;;;;;;;0.14;57.67;94443.41;5011060;28;20088;-69
2021/11/29 12:20:29;;;;;;;;;;;;;;;-0.09;57.92;94449.81;5012979;28;20321;-65
2021/11/29 12:22:55;;;;;;;;;;;;;;;-0.55;59.79;94448.75;5011610;28;20047;-66
2021/11/29 12:25:25;;;;;;;;;;;;;;;0.15;54.58;94445.06;5016044;28;20440;-69
2021/11/29 12:27:51;;;;;;;;;;;;;;;-0.45;59.72;94450.38;5012006;28;20439;-69
2021/11/29 12:30:31;;;;;;;;;;;;;;;0.23;56.18;94453.03;5017464;28;20004;-67
2021/11/29 12:33:01;;;;;;;;;;;;;;;-0.34;58.41;94459.06;5006061;28;19998;-69
2021/11/29 12:35:33;;;;;;;;;;;;;;;-0.54;60.14;94469.50;5006559;28;20367;-70
2021/11/29 12:38:06;;;;;;;;;;;;;;;-0.34;59.08;94461.69;5011652;28;20017;-68
2021/11/29 12:40:41;;;;;;;;;;;;;;;-0.16;57.37;94459.19;5003205;28;20470;-69
2021/11/29 12:43:06;;;;;;;;;;;;;;;-0.05;56.31;94469.50;5013479;28;19993;-68